Latest Weather Observations for Port Augusta

IDS60801

Issued at 2:31 pm CST Thursday 27 April 2017 (issued every 30 minutes, with the page automatically refreshed every 10 minutes)

About weather observations | Map of weather stations | Latest weather observations for SA | Other Formats
Station Details ID: 018201 Name: PORT AUGUSTA AERO Lat: -32.51 Lon: 137.72 Height: 13.97 m
Data from the previous 72 hours. | See also: Recent months at Port Augusta
Date/Time
CST
Temp
°C
App
Temp
°C
Dew
Point
°C
Rel
Hum
%
Delta-T
°C
Wind Press
QNH
hPa
Press
MSL
hPa
Rain since
9am
mm
Dir  Spd
km/h
Gust
km/h
Spd
kts
Gust
kts
27/02:30pm 16.5 12.3 7.4 55 4.5 SE 19 26 10 14 1027.3 1027.2 0.0
27/02:00pm 17.1 13.6 7.2 52 4.9 S 15 26 8 14 1027.4 1027.3 0.0
27/01:30pm 16.8 13.9 6.3 50 5.1 SSE 11 17 6 9 1027.5 1027.4 0.0
27/01:00pm 16.4 11.5 7.1 54 4.6 SSW 22 28 12 15 1027.8 1027.7 0.0
27/12:30pm 16.2 11.4 7.4 56 4.4 SSW 22 28 12 15 1028.3 1028.2 0.0
27/12:00pm 15.5 11.7 7.5 59 3.9 SSE 17 22 9 12 1028.7 1028.6 0.0
27/11:30am 15.8 11.8 6.8 55 4.4 SE 17 22 9 12 1029.1 1029.0 0.0
27/11:00am 16.8 12.9 6.9 52 4.9 SE 17 26 9 14 1029.1 1029.0 0.0
27/10:30am 15.5 10.9 5.7 52 4.7 S 19 24 10 13 1029.5 1029.4 0.0
27/10:00am 15.6 11.0 5.8 52 4.7 SSE 19 28 10 15 1029.4 1029.3 0.0
27/09:30am 15.1 11.9 6.9 58 4.0 SSE 13 20 7 11 1029.4 1029.3 0.0
27/09:00am 13.9 12.0 7.4 65 3.2 SW 7 11 4 6 1029.5 1029.4 0.8
27/08:30am 12.5 10.4 8.2 75 2.1 SSW 9 9 5 5 1029.4 1029.3 0.8
27/08:00am 10.6 8.5 8.4 86 1.1 SW 9 11 5 6 1029.0 1028.9 0.8
27/07:30am 8.4 5.7 7.2 92 0.6 WSW 11 13 6 7 1028.7 1028.6 0.8
27/07:00am 7.3 5.6 6.1 92 0.5 WSW 4 7 2 4 1028.3 1028.2 0.8
27/06:30am 7.2 5.9 6.0 92 0.5 N 2 7 1 4 1028.2 1028.1 0.8
27/06:00am 7.4 4.4 5.9 90 0.7 WSW 11 11 6 6 1028.1 1028.0 0.8
27/05:30am 8.4 5.2 6.7 89 0.8 SW 13 15 7 8 1027.9 1027.8 0.8
27/05:00am 8.7 5.1 6.7 87 0.9 SSW 15 17 8 9 1027.5 1027.4 0.8
27/04:30am 8.2 4.5 6.5 89 0.8 SW 15 15 8 8 1027.3 1027.2 0.8
27/04:00am 8.4 4.8 6.7 89 0.8 SW 15 17 8 9 1027.0 1026.9 0.8
27/03:30am 8.7 5.5 6.8 88 0.9 SW 13 17 7 9 1027.0 1026.9 0.8
27/03:00am 8.6 5.0 6.7 88 0.9 SW 15 17 8 9 1026.9 1026.8 0.8
27/02:30am 8.7 5.8 6.7 87 0.9 SW 11 13 6 7 1027.0 1026.9 0.8
27/02:00am 9.3 6.7 6.2 81 1.4 S 9 11 5 6 1026.7 1026.6 0.8
27/01:30am 10.3 7.7 6.1 75 1.9 SE 9 11 5 6 1026.5 1026.4 0.8
27/01:00am 10.7 7.9 6.8 77 1.8 SSE 11 15 6 8 1026.5 1026.4 0.8
27/12:30am 10.3 7.9 7.2 81 1.5 SSE 9 13 5 7 1026.5 1026.4 0.8
27/12:00am 10.5 7.8 7.2 80 1.6 S 11 13 6 7 1026.3 1026.2 0.8
 
Date/Time
CST
Temp
°C
App
Temp
°C
Dew
Point
°C
Rel
Hum
%
Delta-T
°C
Wind Press
QNH
hPa
Press
MSL
hPa
Rain since
9am
mm
Dir  Spd
km/h
Gust
km/h
Spd
kts
Gust
kts
26/11:30pm 12.5 8.2 7.0 69 2.6 SSE 19 22 10 12 1026.3 1026.2 0.8
26/11:00pm 13.0 9.2 7.5 69 2.7 SE 17 22 9 12 1026.5 1026.4 0.8
26/10:30pm 12.9 9.9 7.8 71 2.5 SE 13 17 7 9 1026.2 1026.1 0.8
26/10:00pm 12.8 9.5 8.1 73 2.3 S 15 19 8 10 1026.0 1025.9 0.8
26/09:30pm 13.1 8.8 8.0 71 2.5 S 20 24 11 13 1025.8 1025.7 0.8
26/09:00pm 12.6 8.1 8.5 76 2.0 SSW 22 26 12 14 1025.6 1025.5 0.8
26/08:30pm 12.6 8.0 8.1 74 2.2 SSW 22 30 12 16 1025.2 1025.1 0.8
26/08:00pm 13.1 7.7 7.8 70 2.6 SSW 26 33 14 18 1025.2 1025.1 0.8
26/07:30pm 13.4 7.1 7.4 67 2.9 SSW 30 37 16 20 1025.3 1025.2 0.8
26/07:00pm 13.7 8.9 7.5 66 3.0 SSW 22 28 12 15 1025.1 1025.0 0.8
26/06:30pm 13.7 9.3 7.5 66 3.0 SSW 20 26 11 14 1024.6 1024.5 0.8
26/06:00pm 13.9 9.6 7.7 66 3.0 SSW 20 26 11 14 1024.3 1024.2 0.8
26/05:30pm 13.9 9.0 7.0 63 3.3 SSW 22 28 12 15 1023.7 1023.6 0.8
26/05:00pm 14.6 7.6 6.2 57 4.0 SSW 32 39 17 21 1023.5 1023.4 0.8
26/04:30pm 15.4 9.0 6.9 57 4.1 SSW 30 39 16 21 1023.4 1023.3 0.8
26/04:11pm 15.8 9.7 6.5 54 4.5 S 28 46 15 25 1023.4 1023.3 0.8
26/04:00pm 14.8 8.0 7.1 60 3.8 S 32 43 17 23 1023.6 1023.5 0.8
26/03:30pm 15.2 7.9 7.3 59 3.9 S 35 44 19 24 1023.5 1023.4 0.8
26/03:00pm 15.8 8.2 6.0 52 4.7 S 35 48 19 26 1023.4 1023.3 0.8
26/02:30pm 15.9 8.9 6.1 52 4.7 S 32 44 17 24 1023.1 1023.0 0.8
26/02:00pm 15.7 7.4 5.9 52 4.7 S 39 50 21 27 1022.9 1022.8 0.8
26/01:30pm 16.0 7.8 6.4 53 4.7 S 39 48 21 26 1022.9 1022.8 0.8
26/01:00pm 15.3 9.0 7.3 59 4.0 S 30 37 16 20 1023.2 1023.1 0.8
26/12:47pm 15.0 9.1 7.3 60 3.8 S 28 46 15 25 1023.4 1023.3 0.8
26/12:30pm 14.9 9.8 7.7 62 3.6 S 24 32 13 17 1023.3 1023.2 0.8
26/12:00pm 14.4 9.5 8.4 67 3.0 S 24 30 13 16 1023.4 1023.3 0.8
26/11:30am 14.2 11.5 10.4 78 2.0 SSW 15 20 8 11 1023.6 1023.5 0.8
26/11:00am 12.6 8.3 9.2 80 1.7 S 22 30 12 16 1023.7 1023.6 0.8
26/10:43am 11.9 7.8 10.0 88 1.0 SSE 22 28 12 15 1023.6 1023.5 0.8
26/10:30am 11.9 7.4 10.1 89 0.9 SSE 24 32 13 17 1023.7 1023.6 0.8
26/10:25am 11.6 6.6 9.7 88 1.0 S 26 32 14 17 1023.8 1023.7 0.8
26/10:09am 12.0 8.6 10.4 90 0.8 SSE 19 26 10 14 1023.6 1023.5 0.8
26/10:00am 11.6 8.4 10.0 90 0.8 SSE 17 20 9 11 1023.6 1023.5 0.8
26/09:53am 11.7 8.5 10.1 90 0.8 S 17 22 9 12 1023.6 1023.5 0.6
26/09:30am 11.6 8.0 9.9 89 0.9 SSE 19 30 10 16 1023.3 1023.2 0.2
26/09:29am 11.5 7.9 9.8 89 0.9 SSE 19 30 10 16 1023.3 1023.2 0.2
26/09:00am 11.4 7.2 9.8 90 0.8 SE 22 28 12 15 1022.8 1022.7 0.2
26/08:50am 11.6 6.3 9.7 88 1.0 SSE 28 35 15 19 1022.6 1022.5 0.0
26/08:30am 13.3 8.4 7.1 66 3.0 SSW 22 30 12 16 1022.0 1021.9 0.0
26/08:00am 12.2 7.7 6.9 70 2.5 SW 20 26 11 14 1021.2 1021.1 0.0
26/07:30am 11.8 5.6 6.3 69 2.6 SW 28 39 15 21 1020.6 1020.5 0.0
26/07:00am 11.5 5.6 6.0 69 2.6 SW 26 35 14 19 1020.3 1020.2 0.0
26/06:30am 11.4 6.7 6.1 70 2.5 SW 20 30 11 16 1020.1 1020.0 0.0
26/06:00am 11.2 7.2 6.5 73 2.2 SW 17 22 9 12 1020.0 1019.9 0.0
26/05:30am 11.6 8.0 6.9 73 2.2 SW 15 19 8 10 1019.6 1019.5 0.0
26/05:00am 12.2 8.3 6.9 70 2.5 SW 17 24 9 13 1019.3 1019.2 0.0
26/04:30am 12.6 8.1 7.1 69 2.6 SW 20 28 11 15 1018.9 1018.8 0.0
26/04:00am 13.2 7.7 7.4 68 2.8 SW 26 37 14 20 1018.3 1018.2 0.0
26/03:41am 13.3 7.8 9.2 76 2.1 SW 28 46 15 25 1018.2 1018.1 0.0
26/03:30am 13.2 8.8 10.4 83 1.5 SW 24 33 13 18 1018.3 1018.2 0.0
26/03:00am 13.7 9.0 10.7 82 1.6 SW 26 35 14 19 1017.9 1017.8 0.0
26/02:30am 14.3 10.0 10.7 79 1.9 SW 24 30 13 16 1017.9 1017.8 0.0
26/02:00am 14.4 10.1 10.6 78 2.0 WSW 24 33 13 18 1017.6 1017.5 0.0
26/01:30am 13.9 10.9 10.5 80 1.8 WSW 17 22 9 12 1017.2 1017.1 0.0
26/01:00am 14.0 11.0 10.8 81 1.7 WSW 17 20 9 11 1017.1 1017.0 0.0
26/12:30am 14.1 10.2 10.7 80 1.8 WSW 22 30 12 16 1016.9 1016.8 0.0
26/12:00am 14.4 9.7 10.6 78 2.0 WSW 26 32 14 17 1016.7 1016.6 0.0
 
Date/Time
CST
Temp
°C
App
Temp
°C
Dew
Point
°C
Rel
Hum
%
Delta-T
°C
Wind Press
QNH
hPa
Press
MSL
hPa
Rain since
9am
mm
Dir  Spd
km/h
Gust
km/h
Spd
kts
Gust
kts
25/11:30pm 14.7 9.7 10.9 78 2.0 WSW 28 35 15 19 1016.5 1016.4 0.0
25/11:00pm 14.4 10.6 11.2 81 1.7 WSW 22 28 12 15 1016.6 1016.5 0.0
25/10:30pm 14.4 10.2 11.0 80 1.8 SW 24 28 13 15 1016.8 1016.7 0.0
25/10:00pm 14.7 11.5 11.1 79 1.9 SW 19 24 10 13 1016.7 1016.6 0.0
25/09:30pm 15.5 10.5 11.1 75 2.3 SW 28 37 15 20 1016.5 1016.4 0.0
25/09:00pm 16.1 9.8 11.1 72 2.7 WSW 35 44 19 24 1016.4 1016.3 0.0
25/08:30pm 16.7 12.2 11.4 71 2.9 SW 26 33 14 18 1016.2 1016.1 0.0
25/08:00pm 16.4 13.6 11.3 72 2.7 SW 17 24 9 13 1016.0 1015.9 0.0
25/07:30pm 17.0 13.9 11.5 70 3.0 SW 19 24 10 13 1015.7 1015.6 0.0
25/07:00pm 17.8 13.7 11.6 67 3.4 WSW 24 33 13 18 1015.3 1015.2 0.0
25/06:30pm 18.6 14.6 11.7 64 3.8 WSW 24 35 13 19 1014.9 1014.8 0.0
25/06:00pm 19.4 16.6 11.2 59 4.5 W 17 26 9 14 1014.6 1014.5 0.0
25/05:30pm 19.8 17.0 10.0 53 5.3 W 15 19 8 10 1014.4 1014.3 0.0
25/05:00pm 20.5 16.8 9.4 49 5.9 WSW 19 24 10 13 1014.2 1014.1 0.0
25/04:30pm 21.4 17.4 9.0 45 6.6 W 20 30 11 16 1014.1 1014.0 0.0
25/04:00pm 22.1 16.5 8.9 43 7.0 W 28 35 15 19 1014.1 1014.0 0.0
25/03:30pm 22.6 18.1 11.4 49 6.3 WSW 26 32 14 17 1013.9 1013.8 0.0
25/03:00pm 22.4 18.2 11.2 49 6.2 WSW 24 32 13 17 1013.8 1013.7 0.0
25/02:30pm 22.5 19.4 12.2 52 5.8 SW 20 28 11 15 1013.9 1013.8 0.0
25/02:00pm 21.7 18.4 11.7 53 5.6 SW 20 28 11 15 1014.1 1014.0 0.0
25/01:30pm 20.8 19.3 12.0 57 4.9 W 11 24 6 13 1014.5 1014.4 0.0
25/01:00pm 20.5 18.7 12.0 58 4.7 WSW 13 17 7 9 1015.1 1015.0 0.0
25/12:30pm 19.8 16.2 11.8 60 4.4 SW 22 28 12 15 1015.4 1015.3 0.0
25/12:00pm 20.5 17.7 12.5 60 4.5 WSW 19 26 10 14 1015.8 1015.7 0.0
25/11:30am 19.6 17.4 12.1 62 4.2 SW 15 20 8 11 1016.3 1016.2 0.0
25/11:00am 19.0 17.9 11.8 63 4.0 SW 9 19 5 10 1016.5 1016.4 0.0
25/10:30am 17.8 17.3 12.0 69 3.2 NW 6 9 3 5 1016.8 1016.7 0.0
25/10:00am 17.4 16.2 12.7 74 2.6 WSW 11 17 6 9 1017.1 1017.0 0.0
25/09:30am 16.8 15.2 12.7 77 2.3 WSW 13 20 7 11 1017.0 1016.9 0.0
25/09:00am 16.1 15.6 12.7 80 1.9 WSW 7 11 4 6 1017.2 1017.1 31.8
25/08:30am 15.4 15.0 12.9 85 1.4 SW 7 9 4 5 1017.2 1017.1 31.8
25/08:00am 14.9 14.1 12.9 88 1.1 S 9 15 5 8 1016.8 1016.7 31.8
25/07:30am 14.1 13.7 13.0 93 0.6 SSW 7 13 4 7 1016.4 1016.3 31.8
25/07:00am 13.7 11.3 12.8 94 0.5 SW 17 22 9 12 1015.9 1015.8 31.8
25/06:30am 13.1 12.4 12.0 93 0.6 W 7 11 4 6 1015.6 1015.5 31.8
25/06:00am 13.8 13.3 12.5 92 0.7 WSW 7 13 4 7 1015.5 1015.4 31.8
25/05:30am 13.6 14.0 12.5 93 0.6 WSW 2 6 1 3 1015.5 1015.4 31.8
25/05:00am 13.5 13.8 12.1 91 0.8 WSW 2 6 1 3 1015.3 1015.2 31.8
25/04:30am 14.2 13.4 12.9 92 0.7 SSE 9 15 5 8 1015.1 1015.0 31.8
25/04:00am 14.5 11.6 13.0 91 0.8 SW 20 26 11 14 1014.9 1014.8 31.8
25/03:30am 14.9 12.5 13.8 93 0.6 SW 19 28 10 15 1014.8 1014.7 31.6
25/03:00am 15.0 14.5 13.9 93 0.6 SSW 9 11 5 6 1014.8 1014.7 31.6
25/02:30am 15.5 13.7 14.4 93 0.6 WSW 17 19 9 10 1014.9 1014.8 31.6
25/02:00am 15.9 14.6 14.9 94 0.6 SW 15 17 8 9 1015.0 1014.9 31.6
25/01:30am 15.7 14.7 14.7 94 0.6 SW 13 15 7 8 1014.9 1014.8 31.6
25/01:00am 15.9 16.1 14.8 93 0.6 WNW 7 11 4 6 1015.0 1014.9 31.6
25/12:30am 15.8 17.3 14.7 93 0.6 CALM 0 0 0 0 1015.2 1015.1 31.6
25/12:00am 15.8 16.5 14.5 92 0.7 NNW 4 7 2 4 1015.3 1015.2 31.6
 
Date/Time
CST
Temp
°C
App
Temp
°C
Dew
Point
°C
Rel
Hum
%
Delta-T
°C
Wind Press
QNH
hPa
Press
MSL
hPa
Rain since
9am
mm
Dir  Spd
km/h
Gust
km/h
Spd
kts
Gust
kts
24/11:30pm 16.4 16.9 14.9 91 0.9 NNW 6 7 3 4 1015.4 1015.3 31.6
24/11:00pm 16.7 17.4 15.6 93 0.6 WSW 6 7 3 4 1015.5 1015.4 31.6
24/10:30pm 17.2 18.9 16.1 93 0.6 WNW 2 7 1 4 1015.5 1015.4 31.6
24/10:00pm 17.1 18.0 16.1 94 0.6 WNW 6 7 3 4 1016.0 1015.9 31.6
24/09:30pm 17.2 17.6 16.2 94 0.6 WSW 9 15 5 8 1015.7 1015.6 31.6
24/09:00pm 17.2 17.2 16.2 94 0.6 SW 11 15 6 8 1015.2 1015.1 31.6
24/08:30pm 17.4 17.9 16.6 95 0.5 SW 9 13 5 7 1015.5 1015.4 31.6
24/08:00pm 17.4 17.5 16.6 95 0.5 SW 11 13 6 7 1015.5 1015.4 31.6
24/07:52pm 17.4 17.9 16.6 95 0.5 WSW 9 13 5 7 1015.6 1015.5 31.6
24/07:30pm 17.6 16.8 17.0 96 0.4 W 17 26 9 14 1015.3 1015.2 31.4
24/07:10pm 18.2 18.4 17.7 97 0.3 NW 13 17 7 9 1015.1 1015.0 31.2
24/07:00pm 18.2 18.0 17.7 97 0.3 NW 15 17 8 9 1015.2 1015.1 31.2
24/06:34pm 18.4 18.7 17.9 97 0.3 NNW 13 17 7 9 1014.9 1014.8 31.0
24/06:30pm 18.4 18.7 17.9 97 0.3 NW 13 17 7 9 1014.8 1014.7 31.0
24/06:25pm 18.4 18.3 17.9 97 0.3 WNW 15 19 8 10 1015.0 1014.9 31.0
24/06:00pm 18.2 18.0 17.7 97 0.3 SW 15 20 8 11 1014.6 1014.5 29.0
24/05:36pm 18.1 19.6 17.6 97 0.3 WNW 6 7 3 4 1014.6 1014.5 26.4
24/05:31pm 18.1 19.6 17.6 97 0.3 NW 6 7 3 4 1014.6 1014.5 25.8
24/05:30pm 18.1 19.6 17.6 97 0.3 NW 6 7 3 4 1014.6 1014.5 25.4
24/05:09pm 17.9 19.1 17.4 97 0.3 NW 7 9 4 5 1014.5 1014.4 25.2
24/05:00pm 17.8 19.0 17.3 97 0.3 NW 7 7 4 4 1014.5 1014.4 25.2
24/04:30pm 17.6 18.7 17.1 97 0.3 WSW 7 9 4 5 1014.6 1014.5 25.0
24/04:26pm 17.7 18.8 17.1 96 0.4 WSW 7 9 4 5 1014.5 1014.4 25.0
24/04:00pm 17.6 20.0 17.0 96 0.4 CALM 0 0 0 0 1014.5 1014.4 23.4
24/03:59pm 17.6 20.0 17.0 96 0.4 CALM 0 0 0 0 1014.5 1014.4 23.4
24/03:56pm 17.6 20.0 17.0 96 0.4 CALM 0 0 0 0 1014.5 1014.4 23.2
24/03:40pm 17.7 20.1 17.1 96 0.4 CALM 0 0 0 0 1014.5 1014.4 22.6
24/03:30pm 17.7 20.1 17.1 96 0.4 CALM 0 0 0 0 1014.5 1014.4 22.2
24/03:00pm 17.6 18.9 17.0 96 0.4 WSW 6 7 3 4 1014.7 1014.6 21.0
24/02:58pm 17.6 18.9 17.0 96 0.4 WSW 6 7 3 4 1014.7 1014.6 21.0
24/02:41pm 17.6 18.3 17.1 97 0.3 WSW 9 11 5 6 1014.9 1014.8 20.8

Other Formats:

Comma delimited format used in spreadsheet applications
http://www.bom.gov.au/fwo/IDS60801/IDS60801.95666.axf

JavaScript Object Notation format (JSON) in row-major order
http://www.bom.gov.au/fwo/IDS60801/IDS60801.95666.json